BAW141I EGLL-EGCC
Flight info
| Callsign | BAW141I |
|---|---|
| Flight time | 0h 41m |
| Altitude | 18000 |
| Route | ULTIB1J ULTIB T420 ELVOS ELVOS1M |
| Aircraft | A319/M-SDE3FGHIRWY/LB1 |
Departure
| Time | 2026-05-07 14:00 |
|---|---|
| Airport | London Heathrow Airport (EGLL) |
Arrival
| Time | 2026-05-07 14:41 |
|---|---|
| Airport | Manchester Airport (EGCC) |
| Time | Latitude | Longitude | Altitude | Speed | Heading |
|---|---|---|---|---|---|
| 2026-05-07 12:40 | 51.47187 | -0.48609 | 87 ft | 0 kts | 269° |
| 2026-05-07 13:10 | 51.47187 | -0.48608 | 87 ft | 0 kts | 269° |
| 2026-05-07 13:48 | 51.47187 | -0.48607 | 87 ft | 1 kts | 270° |
| 2026-05-07 13:48 | 51.47188 | -0.48570 | 87 ft | 4 kts | 264° |
| 2026-05-07 13:48 | 51.47192 | -0.48527 | 89 ft | 4 kts | 254° |
| 2026-05-07 13:48 | 51.47202 | -0.48488 | 89 ft | 4 kts | 224° |
| 2026-05-07 13:49 | 51.47215 | -0.48475 | 91 ft | 0 kts | 180° |
| 2026-05-07 13:54 | 51.47214 | -0.48475 | 87 ft | 0 kts | 180° |
| 2026-05-07 13:55 | 51.47206 | -0.48475 | 90 ft | 3 kts | 180° |
| 2026-05-07 13:55 | 51.47177 | -0.48475 | 87 ft | 5 kts | 180° |
| 2026-05-07 13:55 | 51.47130 | -0.48475 | 87 ft | 8 kts | 180° |
| 2026-05-07 13:55 | 51.47065 | -0.48475 | 87 ft | 11 kts | 179° |
| 2026-05-07 13:56 | 51.46981 | -0.48473 | 87 ft | 13 kts | 180° |
| 2026-05-07 13:56 | 51.46878 | -0.48473 | 87 ft | 16 kts | 179° |
| 2026-05-07 13:56 | 51.46823 | -0.48472 | 87 ft | 1 kts | 180° |
| 2026-05-07 13:56 | 51.46800 | -0.48472 | 88 ft | 5 kts | 180° |
| 2026-05-07 13:57 | 51.46746 | -0.48472 | 87 ft | 10 kts | 180° |
| 2026-05-07 13:57 | 51.46664 | -0.48471 | 87 ft | 13 kts | 179° |
| 2026-05-07 13:57 | 51.46595 | -0.48470 | 88 ft | 0 kts | 180° |
| 2026-05-07 13:58 | 51.46561 | -0.48470 | 88 ft | 14 kts | 180° |
| 2026-05-07 13:58 | 51.46477 | -0.48453 | 90 ft | 11 kts | 134° |
| 2026-05-07 13:59 | 51.46475 | -0.48405 | 89 ft | 0 kts | 85° |
| 2026-05-07 13:59 | 51.46475 | -0.48404 | 89 ft | 0 kts | 85° |
| 2026-05-07 13:59 | 51.46479 | -0.48178 | 88 ft | 57 kts | 90° |
| 2026-05-07 14:00 | 51.46482 | -0.47160 | 87 ft | 123 kts | 90° |
| 2026-05-07 14:00 | 51.46490 | -0.45508 | 219 ft | 162 kts | 90° |
| 2026-05-07 14:00 | 51.46515 | -0.43719 | 999 ft | 161 kts | 89° |
| 2026-05-07 14:00 | 51.46571 | -0.41916 | 1735 ft | 163 kts | 79° |
| 2026-05-07 14:01 | 51.47000 | -0.40227 | 2321 ft | 168 kts | 53° |
| 2026-05-07 14:01 | 51.47754 | -0.38805 | 3039 ft | 167 kts | 50° |
| 2026-05-07 14:01 | 51.48523 | -0.37345 | 3567 ft | 181 kts | 49° |
| 2026-05-07 14:01 | 51.49391 | -0.35718 | 3963 ft | 204 kts | 49° |
| 2026-05-07 14:02 | 51.50262 | -0.34088 | 4344 ft | 228 kts | 49° |
| 2026-05-07 14:02 | 51.51338 | -0.32026 | 4944 ft | 253 kts | 50° |
| 2026-05-07 14:02 | 51.52373 | -0.29614 | 5699 ft | 271 kts | 67° |
| 2026-05-07 14:02 | 51.53028 | -0.26746 | 6769 ft | 276 kts | 68° |
| 2026-05-07 14:03 | 51.54136 | -0.24209 | 7791 ft | 283 kts | 42° |
| 2026-05-07 14:03 | 51.55858 | -0.22663 | 8783 ft | 289 kts | 15° |
| 2026-05-07 14:03 | 51.57861 | -0.22543 | 9775 ft | 293 kts | 348° |
| 2026-05-07 14:03 | 51.59862 | -0.23265 | 10491 ft | 308 kts | 346° |
| 2026-05-07 14:04 | 51.61979 | -0.24327 | 10934 ft | 329 kts | 336° |
| 2026-05-07 14:04 | 51.64038 | -0.26049 | 11663 ft | 337 kts | 328° |
| 2026-05-07 14:04 | 51.66072 | -0.27979 | 12523 ft | 342 kts | 328° |
| 2026-05-07 14:04 | 51.68134 | -0.29945 | 13392 ft | 347 kts | 328° |
| 2026-05-07 14:05 | 51.70189 | -0.31919 | 14194 ft | 351 kts | 328° |
| 2026-05-07 14:05 | 51.72323 | -0.33976 | 14972 ft | 355 kts | 328° |
| 2026-05-07 14:05 | 51.74421 | -0.36002 | 15735 ft | 358 kts | 328° |
| 2026-05-07 14:05 | 51.76569 | -0.38081 | 16504 ft | 362 kts | 328° |
| 2026-05-07 14:06 | 51.78734 | -0.40178 | 17247 ft | 365 kts | 327° |
| 2026-05-07 14:06 | 51.80924 | -0.42301 | 17855 ft | 369 kts | 327° |
| 2026-05-07 14:06 | 51.83128 | -0.44443 | 18026 ft | 369 kts | 327° |
| 2026-05-07 14:06 | 51.85312 | -0.46570 | 18057 ft | 366 kts | 327° |
| 2026-05-07 14:07 | 51.87496 | -0.48691 | 18058 ft | 365 kts | 327° |
| 2026-05-07 14:07 | 51.89672 | -0.50808 | 18059 ft | 365 kts | 327° |
| 2026-05-07 14:07 | 51.91849 | -0.52928 | 18057 ft | 365 kts | 327° |
| 2026-05-07 14:07 | 51.94026 | -0.55044 | 18056 ft | 365 kts | 327° |
| 2026-05-07 14:08 | 51.96206 | -0.57161 | 18055 ft | 365 kts | 327° |
| 2026-05-07 14:08 | 51.98384 | -0.59283 | 18058 ft | 365 kts | 327° |
| 2026-05-07 14:08 | 52.00559 | -0.61409 | 18057 ft | 365 kts | 327° |
| 2026-05-07 14:08 | 52.02733 | -0.63536 | 18059 ft | 365 kts | 327° |
| 2026-05-07 14:09 | 52.04910 | -0.65672 | 18060 ft | 365 kts | 327° |
| 2026-05-07 14:09 | 52.07085 | -0.67811 | 18063 ft | 365 kts | 327° |
| 2026-05-07 14:09 | 52.09258 | -0.69952 | 18063 ft | 366 kts | 327° |
| 2026-05-07 14:09 | 52.11434 | -0.72097 | 18063 ft | 365 kts | 327° |
| 2026-05-07 14:10 | 52.13606 | -0.74237 | 18063 ft | 365 kts | 327° |
| 2026-05-07 14:10 | 52.15785 | -0.76383 | 18059 ft | 366 kts | 327° |
| 2026-05-07 14:10 | 52.17962 | -0.78524 | 18063 ft | 366 kts | 327° |
| 2026-05-07 14:10 | 52.20136 | -0.80671 | 18063 ft | 366 kts | 327° |
| 2026-05-07 14:11 | 52.22312 | -0.82826 | 18065 ft | 366 kts | 327° |
| 2026-05-07 14:11 | 52.24491 | -0.84988 | 18062 ft | 366 kts | 327° |
| 2026-05-07 14:11 | 52.26665 | -0.87144 | 18063 ft | 366 kts | 327° |
| 2026-05-07 14:11 | 52.28843 | -0.89303 | 18062 ft | 366 kts | 327° |
| 2026-05-07 14:12 | 52.31020 | -0.91466 | 18062 ft | 366 kts | 327° |
| 2026-05-07 14:12 | 52.33192 | -0.93629 | 18071 ft | 366 kts | 327° |
| 2026-05-07 14:12 | 52.35369 | -0.95798 | 18069 ft | 366 kts | 327° |
| 2026-05-07 14:12 | 52.37543 | -0.97968 | 18072 ft | 366 kts | 327° |
| 2026-05-07 14:13 | 52.39687 | -1.00114 | 18073 ft | 366 kts | 327° |
| 2026-05-07 14:13 | 52.41861 | -1.02293 | 18077 ft | 367 kts | 327° |
| 2026-05-07 14:13 | 52.44025 | -1.04467 | 18054 ft | 359 kts | 327° |
| 2026-05-07 14:13 | 52.46121 | -1.06570 | 18047 ft | 349 kts | 327° |
| 2026-05-07 14:14 | 52.48150 | -1.08603 | 18047 ft | 335 kts | 327° |
| 2026-05-07 14:14 | 52.50125 | -1.10584 | 18043 ft | 331 kts | 326° |
| 2026-05-07 14:14 | 52.52086 | -1.12556 | 18042 ft | 330 kts | 326° |
| 2026-05-07 14:14 | 52.54043 | -1.14527 | 18037 ft | 330 kts | 326° |
| 2026-05-07 14:15 | 52.56001 | -1.16499 | 18038 ft | 330 kts | 326° |
| 2026-05-07 14:15 | 52.57957 | -1.18471 | 18034 ft | 330 kts | 326° |
| 2026-05-07 14:15 | 52.59911 | -1.20445 | 18029 ft | 330 kts | 326° |
| 2026-05-07 14:15 | 52.61865 | -1.22422 | 18032 ft | 330 kts | 326° |
| 2026-05-07 14:16 | 52.63822 | -1.24402 | 18026 ft | 330 kts | 326° |
| 2026-05-07 14:16 | 52.65777 | -1.26381 | 18034 ft | 330 kts | 326° |
| 2026-05-07 14:16 | 52.67733 | -1.28360 | 18037 ft | 330 kts | 326° |
| 2026-05-07 14:16 | 52.69691 | -1.30340 | 18034 ft | 330 kts | 326° |
| 2026-05-07 14:17 | 52.71652 | -1.32326 | 17771 ft | 330 kts | 326° |
| 2026-05-07 14:17 | 52.73594 | -1.34295 | 17532 ft | 328 kts | 326° |
| 2026-05-07 14:17 | 52.75537 | -1.36272 | 17261 ft | 326 kts | 326° |
| 2026-05-07 14:17 | 52.77449 | -1.38226 | 16996 ft | 320 kts | 326° |
| 2026-05-07 14:18 | 52.79324 | -1.40146 | 16731 ft | 315 kts | 326° |
| 2026-05-07 14:18 | 52.81176 | -1.42044 | 16470 ft | 312 kts | 326° |
| 2026-05-07 14:18 | 52.83018 | -1.43928 | 16209 ft | 311 kts | 326° |
| 2026-05-07 14:18 | 52.84854 | -1.45804 | 15949 ft | 310 kts | 326° |
| 2026-05-07 14:19 | 52.86680 | -1.47678 | 15700 ft | 309 kts | 326° |
| 2026-05-07 14:19 | 52.88501 | -1.49554 | 15452 ft | 308 kts | 326° |
| 2026-05-07 14:19 | 52.90317 | -1.51430 | 15191 ft | 307 kts | 326° |
| 2026-05-07 14:19 | 52.92126 | -1.53297 | 14948 ft | 306 kts | 326° |
| 2026-05-07 14:20 | 52.93936 | -1.55159 | 14697 ft | 306 kts | 326° |
| 2026-05-07 14:20 | 52.95739 | -1.57014 | 14356 ft | 305 kts | 326° |
| 2026-05-07 14:20 | 52.97540 | -1.58871 | 14000 ft | 305 kts | 326° |
| 2026-05-07 14:20 | 52.98734 | -1.60106 | 13746 ft | 305 kts | 326° |
| 2026-05-07 14:21 | 53.01140 | -1.62595 | 13246 ft | 304 kts | 326° |
| 2026-05-07 14:21 | 53.02932 | -1.64447 | 12895 ft | 303 kts | 326° |
| 2026-05-07 14:21 | 53.04705 | -1.66320 | 12528 ft | 301 kts | 322° |
| 2026-05-07 14:21 | 53.06245 | -1.68625 | 12175 ft | 297 kts | 309° |
| 2026-05-07 14:22 | 53.07564 | -1.71192 | 11821 ft | 295 kts | 308° |
| 2026-05-07 14:22 | 53.08899 | -1.73786 | 11473 ft | 295 kts | 308° |
| 2026-05-07 14:22 | 53.10149 | -1.76206 | 11200 ft | 292 kts | 308° |
| 2026-05-07 14:22 | 53.11472 | -1.78762 | 10827 ft | 292 kts | 308° |
| 2026-05-07 14:23 | 53.12788 | -1.81307 | 10626 ft | 287 kts | 308° |
| 2026-05-07 14:23 | 53.14079 | -1.83810 | 10360 ft | 283 kts | 307° |
| 2026-05-07 14:23 | 53.15359 | -1.86292 | 10063 ft | 282 kts | 307° |
| 2026-05-07 14:23 | 53.16632 | -1.88764 | 9710 ft | 280 kts | 307° |
| 2026-05-07 14:24 | 53.17899 | -1.91232 | 9222 ft | 284 kts | 307° |
| 2026-05-07 14:24 | 53.19198 | -1.93776 | 8678 ft | 289 kts | 307° |
| 2026-05-07 14:24 | 53.20501 | -1.96327 | 8308 ft | 288 kts | 307° |
| 2026-05-07 14:24 | 53.21770 | -1.98805 | 8154 ft | 273 kts | 307° |
| 2026-05-07 14:25 | 53.23120 | -2.00940 | 7865 ft | 266 kts | 324° |
| 2026-05-07 14:25 | 53.24786 | -2.02224 | 7952 ft | 269 kts | 341° |
| 2026-05-07 14:25 | 53.26671 | -2.02594 | 7483 ft | 279 kts | 5° |
| 2026-05-07 14:25 | 53.28515 | -2.01539 | 7030 ft | 285 kts | 33° |
| 2026-05-07 14:26 | 53.30084 | -1.99525 | 6653 ft | 285 kts | 41° |
| 2026-05-07 14:26 | 53.31598 | -1.97393 | 6328 ft | 284 kts | 41° |
| 2026-05-07 14:26 | 53.33011 | -1.95378 | 6027 ft | 282 kts | 41° |
| 2026-05-07 14:26 | 53.34400 | -1.93078 | 5672 ft | 280 kts | 49° |
| 2026-05-07 14:27 | 53.35672 | -1.90656 | 5511 ft | 273 kts | 50° |
| 2026-05-07 14:27 | 53.36894 | -1.88293 | 5374 ft | 265 kts | 50° |
| 2026-05-07 14:27 | 53.38079 | -1.86002 | 5245 ft | 255 kts | 50° |
| 2026-05-07 14:27 | 53.39212 | -1.83811 | 5114 ft | 243 kts | 50° |
| 2026-05-07 14:28 | 53.40290 | -1.81741 | 4996 ft | 230 kts | 50° |
| 2026-05-07 14:28 | 53.41328 | -1.79755 | 4844 ft | 222 kts | 50° |
| 2026-05-07 14:28 | 53.42337 | -1.77823 | 4673 ft | 218 kts | 51° |
| 2026-05-07 14:28 | 53.43321 | -1.75955 | 4527 ft | 209 kts | 50° |
| 2026-05-07 14:29 | 53.44265 | -1.74163 | 4373 ft | 201 kts | 50° |
| 2026-05-07 14:29 | 53.45191 | -1.72421 | 4120 ft | 200 kts | 50° |
| 2026-05-07 14:29 | 53.46261 | -1.70966 | 3845 ft | 200 kts | 24° |
| 2026-05-07 14:29 | 53.47613 | -1.70622 | 3550 ft | 197 kts | 349° |
| 2026-05-07 14:30 | 53.48839 | -1.71492 | 3500 ft | 194 kts | 317° |
| 2026-05-07 14:30 | 53.49633 | -1.73252 | 3497 ft | 188 kts | 286° |
| 2026-05-07 14:30 | 53.49793 | -1.75316 | 3495 ft | 171 kts | 260° |
| 2026-05-07 14:30 | 53.49694 | -1.77275 | 3496 ft | 167 kts | 260° |
| 2026-05-07 14:31 | 53.49604 | -1.79200 | 3500 ft | 165 kts | 261° |
| 2026-05-07 14:31 | 53.49516 | -1.81124 | 3504 ft | 165 kts | 260° |
| 2026-05-07 14:31 | 53.49430 | -1.83047 | 3499 ft | 165 kts | 260° |
| 2026-05-07 14:31 | 53.49179 | -1.84907 | 3502 ft | 162 kts | 232° |
| 2026-05-07 14:32 | 53.48307 | -1.85956 | 3497 ft | 155 kts | 187° |
| 2026-05-07 14:32 | 53.47231 | -1.85543 | 3525 ft | 172 kts | 147° |
| 2026-05-07 14:32 | 53.46569 | -1.83858 | 3511 ft | 182 kts | 105° |
| 2026-05-07 14:32 | 53.46755 | -1.81740 | 3501 ft | 194 kts | 64° |
| 2026-05-07 14:33 | 53.47745 | -1.80212 | 3499 ft | 199 kts | 26° |
| 2026-05-07 14:33 | 53.49108 | -1.79840 | 3494 ft | 201 kts | 350° |
| 2026-05-07 14:33 | 53.50359 | -1.80736 | 3497 ft | 194 kts | 316° |
| 2026-05-07 14:33 | 53.51123 | -1.82533 | 3502 ft | 188 kts | 284° |
| 2026-05-07 14:34 | 53.51242 | -1.84650 | 3504 ft | 181 kts | 255° |
| 2026-05-07 14:34 | 53.50902 | -1.86676 | 3498 ft | 181 kts | 249° |
| 2026-05-07 14:34 | 53.50550 | -1.88706 | 3501 ft | 182 kts | 249° |
| 2026-05-07 14:34 | 53.50200 | -1.90749 | 3508 ft | 182 kts | 249° |
| 2026-05-07 14:35 | 53.49854 | -1.92777 | 3505 ft | 181 kts | 250° |
| 2026-05-07 14:35 | 53.49505 | -1.94811 | 3504 ft | 181 kts | 249° |
| 2026-05-07 14:35 | 53.49273 | -1.96158 | 3506 ft | 182 kts | 249° |
| 2026-05-07 14:35 | 53.48806 | -1.98866 | 3511 ft | 179 kts | 248° |
| 2026-05-07 14:36 | 53.48446 | -2.00087 | 3499 ft | 175 kts | 231° |
| 2026-05-07 14:36 | 53.47712 | -2.01736 | 3505 ft | 177 kts | 229° |
| 2026-05-07 14:36 | 53.46958 | -2.03358 | 3506 ft | 176 kts | 227° |
| 2026-05-07 14:36 | 53.46193 | -2.04971 | 3416 ft | 176 kts | 227° |
| 2026-05-07 14:37 | 53.45431 | -2.06571 | 3238 ft | 175 kts | 227° |
| 2026-05-07 14:37 | 53.43905 | -2.09756 | 2788 ft | 175 kts | 227° |
| 2026-05-07 14:37 | 53.43144 | -2.11344 | 2546 ft | 175 kts | 227° |
| 2026-05-07 14:38 | 53.42396 | -2.12906 | 2324 ft | 167 kts | 227° |
| 2026-05-07 14:38 | 53.41697 | -2.14364 | 2102 ft | 153 kts | 226° |
| 2026-05-07 14:38 | 53.41069 | -2.15676 | 1891 ft | 135 kts | 227° |
| 2026-05-07 14:38 | 53.40509 | -2.16841 | 1704 ft | 123 kts | 226° |
| 2026-05-07 14:39 | 53.39976 | -2.17947 | 1534 ft | 121 kts | 225° |
| 2026-05-07 14:39 | 53.39451 | -2.19037 | 1382 ft | 119 kts | 226° |
| 2026-05-07 14:39 | 53.38932 | -2.20115 | 1214 ft | 118 kts | 225° |
| 2026-05-07 14:39 | 53.38412 | -2.21192 | 1042 ft | 120 kts | 225° |
| 2026-05-07 14:40 | 53.37893 | -2.22271 | 869 ft | 118 kts | 226° |
| 2026-05-07 14:40 | 53.37376 | -2.23346 | 697 ft | 120 kts | 227° |
| 2026-05-07 14:40 | 53.36854 | -2.24431 | 539 ft | 119 kts | 227° |
| 2026-05-07 14:40 | 53.36337 | -2.25507 | 366 ft | 119 kts | 229° |
| 2026-05-07 14:41 | 53.35829 | -2.26542 | 267 ft | 105 kts | 228° |
| 2026-05-07 14:41 | 53.35472 | -2.27295 | 255 ft | 58 kts | 231° |
| 2026-05-07 14:41 | 53.35286 | -2.27722 | 245 ft | 35 kts | 244° |
| 2026-05-07 14:41 | 53.35240 | -2.28043 | 238 ft | 22 kts | 260° |
| 2026-05-07 14:42 | 53.35244 | -2.28218 | 241 ft | 11 kts | 317° |
| 2026-05-07 14:42 | 53.35280 | -2.28209 | 237 ft | 1 kts | 47° |
| 2026-05-07 14:44 | 53.35314 | -2.28176 | 238 ft | 12 kts | 14° |
| 2026-05-07 14:45 | 53.35429 | -2.28157 | 241 ft | 18 kts | 8° |
| 2026-05-07 14:45 | 53.35532 | -2.28080 | 245 ft | 16 kts | 39° |
| 2026-05-07 14:45 | 53.35602 | -2.27948 | 249 ft | 15 kts | 51° |
| 2026-05-07 14:45 | 53.35694 | -2.27885 | 252 ft | 15 kts | 4° |
| 2026-05-07 14:46 | 53.35795 | -2.27868 | 255 ft | 15 kts | 6° |
| 2026-05-07 14:46 | 53.35907 | -2.27847 | 255 ft | 18 kts | 6° |
| 2026-05-07 14:46 | 53.36037 | -2.27839 | 255 ft | 20 kts | 347° |
| 2026-05-07 14:46 | 53.36142 | -2.27978 | 255 ft | 18 kts | 314° |